AKT weather

RAF Akrotiri
Akrotiri, United Kingdom

Public forecast

Using degrees Celsius for public forecast. Weather courtesy of forecast.io.

METAR (pilot weather report)

Retrieved 2019/04/19 15:50 UTC (36 minutes ago):

LCRA 191550Z 31011KT 9999 FEW035 19/04 Q1013 NOSIG

TAF (pilot weather forecast)

Retrieved 2019/04/19 15:40 UTC (46 minutes ago):

TAF LCRA 191337Z 1915/2009 28015KT 9999 FEW035 BECMG 2000/2003 31005KT PROB30 TEMPO 2003/2009 4000 TSRA SCT020CB BECMG 2006/2009 24015KT